sensor_id;sensor_type;location;lat;lon;timestamp;temperature;humidity
64501;DHT22;50874;24.150;-110.320;2024-03-07T00:00:06;29.00;78.20
64501;DHT22;50874;24.150;-110.320;2024-03-07T00:02:47;28.80;80.60
64501;DHT22;50874;24.150;-110.320;2024-03-07T00:05:19;28.70;82.70
64501;DHT22;50874;24.150;-110.320;2024-03-07T00:07:46;28.50;85.30
64501;DHT22;50874;24.150;-110.320;2024-03-07T00:10:13;28.40;86.40
64501;DHT22;50874;24.150;-110.320;2024-03-07T00:12:41;28.10;88.30
64501;DHT22;50874;24.150;-110.320;2024-03-07T00:15:09;27.90;90.40
64501;DHT22;50874;24.150;-110.320;2024-03-07T00:17:37;27.80;91.00
64501;DHT22;50874;24.150;-110.320;2024-03-07T00:20:04;28.00;91.20
64501;DHT22;50874;24.150;-110.320;2024-03-07T00:22:35;27.90;91.30
64501;DHT22;50874;24.150;-110.320;2024-03-07T00:25:02;27.90;91.80
64501;DHT22;50874;24.150;-110.320;2024-03-07T00:27:31;27.80;92.50
64501;DHT22;50874;24.150;-110.320;2024-03-07T00:29:59;27.70;93.00
64501;DHT22;50874;24.150;-110.320;2024-03-07T00:32:25;27.70;93.30
64501;DHT22;50874;24.150;-110.320;2024-03-07T00:34:56;27.60;93.60
64501;DHT22;50874;24.150;-110.320;2024-03-07T00:37:25;27.60;93.70
64501;DHT22;50874;24.150;-110.320;2024-03-07T00:39:51;27.40;94.00
64501;DHT22;50874;24.150;-110.320;2024-03-07T00:42:18;27.30;94.20
64501;DHT22;50874;24.150;-110.320;2024-03-07T00:44:44;27.30;94.00
64501;DHT22;50874;24.150;-110.320;2024-03-07T00:47:11;27.20;94.10
64501;DHT22;50874;24.150;-110.320;2024-03-07T00:49:37;26.90;94.40
64501;DHT22;50874;24.150;-110.320;2024-03-07T00:52:04;26.80;94.70
64501;DHT22;50874;24.150;-110.320;2024-03-07T00:54:30;26.50;95.30
64501;DHT22;50874;24.150;-110.320;2024-03-07T00:56:57;26.50;95.80
64501;DHT22;50874;24.150;-110.320;2024-03-07T00:59:24;26.40;96.00
64501;DHT22;50874;24.150;-110.320;2024-03-07T01:01:50;26.20;96.20
64501;DHT22;50874;24.150;-110.320;2024-03-07T01:04:17;26.30;96.50
64501;DHT22;50874;24.150;-110.320;2024-03-07T01:06:44;26.20;96.80
64501;DHT22;50874;24.150;-110.320;2024-03-07T01:09:11;26.00;97.30
64501;DHT22;50874;24.150;-110.320;2024-03-07T01:11:43;26.00;97.50
64501;DHT22;50874;24.150;-110.320;2024-03-07T01:14:14;25.90;97.60
64501;DHT22;50874;24.150;-110.320;2024-03-07T01:16:40;25.80;97.70
64501;DHT22;50874;24.150;-110.320;2024-03-07T01:19:07;25.70;97.80
64501;DHT22;50874;24.150;-110.320;2024-03-07T01:21:34;25.50;98.60
64501;DHT22;50874;24.150;-110.320;2024-03-07T01:24:01;25.50;98.60
64501;DHT22;50874;24.150;-110.320;2024-03-07T01:26:28;25.40;99.10
64501;DHT22;50874;24.150;-110.320;2024-03-07T01:28:58;25.30;99.50
64501;DHT22;50874;24.150;-110.320;2024-03-07T01:31:25;25.20;99.80
64501;DHT22;50874;24.150;-110.320;2024-03-07T01:33:52;25.00;99.90
64501;DHT22;50874;24.150;-110.320;2024-03-07T01:36:19;24.80;99.90
64501;DHT22;50874;24.150;-110.320;2024-03-07T01:39:03;24.80;99.90
64501;DHT22;50874;24.150;-110.320;2024-03-07T01:41:31;24.80;99.90
64501;DHT22;50874;24.150;-110.320;2024-03-07T01:44:00;24.60;99.90
64501;DHT22;50874;24.150;-110.320;2024-03-07T01:46:28;24.60;99.90
64501;DHT22;50874;24.150;-110.320;2024-03-07T01:48:55;24.60;99.90
64501;DHT22;50874;24.150;-110.320;2024-03-07T01:51:21;24.60;99.90
64501;DHT22;50874;24.150;-110.320;2024-03-07T01:53:48;24.50;99.90
64501;DHT22;50874;24.150;-110.320;2024-03-07T01:56:15;24.40;99.90
64501;DHT22;50874;24.150;-110.320;2024-03-07T01:58:42;24.40;99.90
64501;DHT22;50874;24.150;-110.320;2024-03-07T02:01:09;24.40;99.90
64501;DHT22;50874;24.150;-110.320;2024-03-07T02:03:36;24.30;99.90
64501;DHT22;50874;24.150;-110.320;2024-03-07T02:06:02;24.30;99.90
64501;DHT22;50874;24.150;-110.320;2024-03-07T02:08:29;24.20;99.90
64501;DHT22;50874;24.150;-110.320;2024-03-07T02:10:57;24.20;99.90
64501;DHT22;50874;24.150;-110.320;2024-03-07T02:13:24;24.10;99.90
64501;DHT22;50874;24.150;-110.320;2024-03-07T02:15:51;24.00;99.90
64501;DHT22;50874;24.150;-110.320;2024-03-07T02:18:17;24.00;99.90
64501;DHT22;50874;24.150;-110.320;2024-03-07T02:20:45;24.00;99.90
64501;DHT22;50874;24.150;-110.320;2024-03-07T02:23:12;23.90;99.90
64501;DHT22;50874;24.150;-110.320;2024-03-07T02:25:38;23.90;99.90
64501;DHT22;50874;24.150;-110.320;2024-03-07T02:28:05;23.80;99.90
64501;DHT22;50874;24.150;-110.320;2024-03-07T02:30:32;23.60;99.90
64501;DHT22;50874;24.150;-110.320;2024-03-07T02:32:59;23.60;99.90
64501;DHT22;50874;24.150;-110.320;2024-03-07T02:35:33;23.60;99.90
64501;DHT22;50874;24.150;-110.320;2024-03-07T02:38:02;23.50;99.90
64501;DHT22;50874;24.150;-110.320;2024-03-07T02:40:29;23.50;99.90
64501;DHT22;50874;24.150;-110.320;2024-03-07T02:42:56;23.40;99.90
64501;DHT22;50874;24.150;-110.320;2024-03-07T02:45:24;23.20;99.90
64501;DHT22;50874;24.150;-110.320;2024-03-07T02:47:51;23.10;99.90
64501;DHT22;50874;24.150;-110.320;2024-03-07T02:50:19;23.10;99.90
64501;DHT22;50874;24.150;-110.320;2024-03-07T02:52:48;23.00;99.90
64501;DHT22;50874;24.150;-110.320;2024-03-07T02:55:15;22.80;99.90
64501;DHT22;50874;24.150;-110.320;2024-03-07T02:57:42;22.70;99.90
64501;DHT22;50874;24.150;-110.320;2024-03-07T03:00:09;22.60;99.90
64501;DHT22;50874;24.150;-110.320;2024-03-07T03:02:52;22.50;99.90
64501;DHT22;50874;24.150;-110.320;2024-03-07T03:05:19;22.50;99.90
64501;DHT22;50874;24.150;-110.320;2024-03-07T03:07:46;22.40;99.90
64501;DHT22;50874;24.150;-110.320;2024-03-07T03:10:22;22.30;99.90
64501;DHT22;50874;24.150;-110.320;2024-03-07T03:12:53;22.20;99.90
64501;DHT22;50874;24.150;-110.320;2024-03-07T03:15:20;22.20;99.90
64501;DHT22;50874;24.150;-110.320;2024-03-07T03:17:47;22.00;99.90
64501;DHT22;50874;24.150;-110.320;2024-03-07T03:20:14;21.90;99.90
64501;DHT22;50874;24.150;-110.320;2024-03-07T03:23:03;21.90;99.90
64501;DHT22;50874;24.150;-110.320;2024-03-07T03:25:32;21.90;99.90
64501;DHT22;50874;24.150;-110.320;2024-03-07T03:28:07;21.90;99.90
64501;DHT22;50874;24.150;-110.320;2024-03-07T03:30:40;21.80;99.90
64501;DHT22;50874;24.150;-110.320;2024-03-07T03:33:07;21.90;99.90
64501;DHT22;50874;24.150;-110.320;2024-03-07T03:35:37;21.80;99.90
64501;DHT22;50874;24.150;-110.320;2024-03-07T03:38:04;21.80;99.90
64501;DHT22;50874;24.150;-110.320;2024-03-07T03:40:31;21.70;99.90
64501;DHT22;50874;24.150;-110.320;2024-03-07T03:42:57;21.60;99.90
64501;DHT22;50874;24.150;-110.320;2024-03-07T03:45:24;21.50;99.90
64501;DHT22;50874;24.150;-110.320;2024-03-07T03:47:54;21.50;99.90
64501;DHT22;50874;24.150;-110.320;2024-03-07T03:50:21;21.50;99.90
64501;DHT22;50874;24.150;-110.320;2024-03-07T03:52:50;21.50;99.90
64501;DHT22;50874;24.150;-110.320;2024-03-07T03:55:17;21.50;99.90
64501;DHT22;50874;24.150;-110.320;2024-03-07T03:57:44;21.40;99.90
64501;DHT22;50874;24.150;-110.320;2024-03-07T04:00:13;21.40;99.90
64501;DHT22;50874;24.150;-110.320;2024-03-07T04:02:46;21.40;99.90
64501;DHT22;50874;24.150;-110.320;2024-03-07T04:05:17;21.40;99.90
64501;DHT22;50874;24.150;-110.320;2024-03-07T04:07:44;21.40;99.90
64501;DHT22;50874;24.150;-110.320;2024-03-07T04:10:12;21.30;99.90
64501;DHT22;50874;24.150;-110.320;2024-03-07T04:12:40;21.30;99.90
64501;DHT22;50874;24.150;-110.320;2024-03-07T04:15:09;21.30;99.90
64501;DHT22;50874;24.150;-110.320;2024-03-07T04:17:36;21.20;99.90
64501;DHT22;50874;24.150;-110.320;2024-03-07T04:20:04;21.10;99.90
64501;DHT22;50874;24.150;-110.320;2024-03-07T04:22:36;21.10;99.90
64501;DHT22;50874;24.150;-110.320;2024-03-07T04:25:07;21.00;99.90
64501;DHT22;50874;24.150;-110.320;2024-03-07T04:27:37;21.00;99.90
64501;DHT22;50874;24.150;-110.320;2024-03-07T04:30:09;20.90;99.90
64501;DHT22;50874;24.150;-110.320;2024-03-07T04:32:38;20.90;99.90
64501;DHT22;50874;24.150;-110.320;2024-03-07T04:35:05;20.90;99.90
64501;DHT22;50874;24.150;-110.320;2024-03-07T04:37:39;20.80;99.90
64501;DHT22;50874;24.150;-110.320;2024-03-07T04:40:08;20.70;99.90
64501;DHT22;50874;24.150;-110.320;2024-03-07T04:42:49;20.70;99.90
64501;DHT22;50874;24.150;-110.320;2024-03-07T04:45:16;20.70;99.90
64501;DHT22;50874;24.150;-110.320;2024-03-07T04:47:43;20.60;99.90
64501;DHT22;50874;24.150;-110.320;2024-03-07T04:50:13;20.60;99.90
64501;DHT22;50874;24.150;-110.320;2024-03-07T04:52:43;20.50;99.90
64501;DHT22;50874;24.150;-110.320;2024-03-07T04:55:10;20.50;99.90
64501;DHT22;50874;24.150;-110.320;2024-03-07T04:57:37;20.50;99.90
64501;DHT22;50874;24.150;-110.320;2024-03-07T05:02:34;20.30;99.90
64501;DHT22;50874;24.150;-110.320;2024-03-07T05:05:00;20.30;99.90
64501;DHT22;50874;24.150;-110.320;2024-03-07T05:07:27;20.30;99.90
64501;DHT22;50874;24.150;-110.320;2024-03-07T05:09:53;20.20;99.90
64501;DHT22;50874;24.150;-110.320;2024-03-07T05:12:19;20.30;99.90
64501;DHT22;50874;24.150;-110.320;2024-03-07T05:14:46;20.30;99.90
64501;DHT22;50874;24.150;-110.320;2024-03-07T05:17:12;20.30;99.90
64501;DHT22;50874;24.150;-110.320;2024-03-07T05:19:39;20.30;99.90
64501;DHT22;50874;24.150;-110.320;2024-03-07T05:22:05;20.30;99.90
64501;DHT22;50874;24.150;-110.320;2024-03-07T05:24:32;20.40;99.90
64501;DHT22;50874;24.150;-110.320;2024-03-07T05:26:59;20.40;99.90
64501;DHT22;50874;24.150;-110.320;2024-03-07T05:29:26;20.30;99.90
64501;DHT22;50874;24.150;-110.320;2024-03-07T05:31:53;20.30;99.90
64501;DHT22;50874;24.150;-110.320;2024-03-07T05:34:20;20.20;99.90
64501;DHT22;50874;24.150;-110.320;2024-03-07T05:36:49;20.20;99.90
64501;DHT22;50874;24.150;-110.320;2024-03-07T05:39:16;20.20;99.90
64501;DHT22;50874;24.150;-110.320;2024-03-07T05:41:44;20.10;99.90
64501;DHT22;50874;24.150;-110.320;2024-03-07T05:44:11;20.00;99.90
64501;DHT22;50874;24.150;-110.320;2024-03-07T05:46:42;20.00;99.90
64501;DHT22;50874;24.150;-110.320;2024-03-07T05:49:13;19.90;99.90
64501;DHT22;50874;24.150;-110.320;2024-03-07T05:51:40;19.90;99.90
64501;DHT22;50874;24.150;-110.320;2024-03-07T05:54:13;19.90;99.90
64501;DHT22;50874;24.150;-110.320;2024-03-07T05:56:40;19.80;99.90
64501;DHT22;50874;24.150;-110.320;2024-03-07T05:59:07;19.80;99.90
64501;DHT22;50874;24.150;-110.320;2024-03-07T06:01:39;19.80;99.90
64501;DHT22;50874;24.150;-110.320;2024-03-07T06:04:07;19.70;99.90
64501;DHT22;50874;24.150;-110.320;2024-03-07T06:06:35;19.70;99.90
64501;DHT22;50874;24.150;-110.320;2024-03-07T06:09:03;19.70;99.90
64501;DHT22;50874;24.150;-110.320;2024-03-07T06:11:37;19.60;99.90
64501;DHT22;50874;24.150;-110.320;2024-03-07T06:14:05;19.60;99.90
64501;DHT22;50874;24.150;-110.320;2024-03-07T06:16:33;19.50;99.90
64501;DHT22;50874;24.150;-110.320;2024-03-07T06:19:02;19.50;99.90
64501;DHT22;50874;24.150;-110.320;2024-03-07T06:21:29;19.50;99.90
64501;DHT22;50874;24.150;-110.320;2024-03-07T06:24:02;19.40;99.90
64501;DHT22;50874;24.150;-110.320;2024-03-07T06:26:29;19.40;99.90
64501;DHT22;50874;24.150;-110.320;2024-03-07T06:29:15;19.50;99.90
64501;DHT22;50874;24.150;-110.320;2024-03-07T06:31:43;19.50;99.90
64501;DHT22;50874;24.150;-110.320;2024-03-07T06:34:09;19.50;99.90
64501;DHT22;50874;24.150;-110.320;2024-03-07T06:36:36;19.50;99.90
64501;DHT22;50874;24.150;-110.320;2024-03-07T06:39:03;19.50;99.90
64501;DHT22;50874;24.150;-110.320;2024-03-07T06:41:32;19.60;99.90
64501;DHT22;50874;24.150;-110.320;2024-03-07T06:43:59;19.60;99.90
64501;DHT22;50874;24.150;-110.320;2024-03-07T06:46:25;19.50;99.90
64501;DHT22;50874;24.150;-110.320;2024-03-07T06:48:53;19.60;99.90
64501;DHT22;50874;24.150;-110.320;2024-03-07T06:51:19;19.50;99.90
64501;DHT22;50874;24.150;-110.320;2024-03-07T06:53:48;19.50;99.90
64501;DHT22;50874;24.150;-110.320;2024-03-07T06:56:16;19.50;99.90
64501;DHT22;50874;24.150;-110.320;2024-03-07T06:58:43;19.50;99.90
64501;DHT22;50874;24.150;-110.320;2024-03-07T07:01:12;19.40;99.90
64501;DHT22;50874;24.150;-110.320;2024-03-07T07:03:41;19.40;99.90
64501;DHT22;50874;24.150;-110.320;2024-03-07T07:06:11;19.30;99.90
64501;DHT22;50874;24.150;-110.320;2024-03-07T07:08:38;19.30;99.90
64501;DHT22;50874;24.150;-110.320;2024-03-07T07:11:04;19.30;99.90
64501;DHT22;50874;24.150;-110.320;2024-03-07T07:13:31;19.20;99.90
64501;DHT22;50874;24.150;-110.320;2024-03-07T07:15:58;19.20;99.90
64501;DHT22;50874;24.150;-110.320;2024-03-07T07:18:24;19.20;99.90
64501;DHT22;50874;24.150;-110.320;2024-03-07T07:20:51;19.10;99.90
64501;DHT22;50874;24.150;-110.320;2024-03-07T07:23:20;19.10;99.90
64501;DHT22;50874;24.150;-110.320;2024-03-07T07:25:47;19.00;99.90
64501;DHT22;50874;24.150;-110.320;2024-03-07T07:28:13;19.00;99.90
64501;DHT22;50874;24.150;-110.320;2024-03-07T07:30:41;19.00;99.90
64501;DHT22;50874;24.150;-110.320;2024-03-07T07:33:08;18.90;99.90
64501;DHT22;50874;24.150;-110.320;2024-03-07T07:35:34;18.80;99.90
64501;DHT22;50874;24.150;-110.320;2024-03-07T07:38:01;18.80;99.90
64501;DHT22;50874;24.150;-110.320;2024-03-07T07:40:28;18.80;99.90
64501;DHT22;50874;24.150;-110.320;2024-03-07T07:42:57;18.70;99.90
64501;DHT22;50874;24.150;-110.320;2024-03-07T07:45:24;18.70;99.90
64501;DHT22;50874;24.150;-110.320;2024-03-07T07:47:52;18.60;99.90
64501;DHT22;50874;24.150;-110.320;2024-03-07T07:50:23;18.50;99.90
64501;DHT22;50874;24.150;-110.320;2024-03-07T07:55:20;18.50;99.90
64501;DHT22;50874;24.150;-110.320;2024-03-07T07:57:49;18.50;99.90
64501;DHT22;50874;24.150;-110.320;2024-03-07T08:00:19;18.40;99.90
64501;DHT22;50874;24.150;-110.320;2024-03-07T08:02:54;18.40;99.90
64501;DHT22;50874;24.150;-110.320;2024-03-07T08:05:22;18.40;99.90
64501;DHT22;50874;24.150;-110.320;2024-03-07T08:07:54;18.40;99.90
64501;DHT22;50874;24.150;-110.320;2024-03-07T08:10:25;18.30;99.90
64501;DHT22;50874;24.150;-110.320;2024-03-07T08:12:52;18.30;99.90
64501;DHT22;50874;24.150;-110.320;2024-03-07T08:15:19;18.30;99.90
64501;DHT22;50874;24.150;-110.320;2024-03-07T08:17:47;18.20;99.90
64501;DHT22;50874;24.150;-110.320;2024-03-07T08:20:16;18.20;99.90
64501;DHT22;50874;24.150;-110.320;2024-03-07T08:22:44;18.10;99.90
64501;DHT22;50874;24.150;-110.320;2024-03-07T08:25:14;18.00;99.90
64501;DHT22;50874;24.150;-110.320;2024-03-07T08:27:43;18.10;99.90
64501;DHT22;50874;24.150;-110.320;2024-03-07T08:30:11;18.00;99.90
64501;DHT22;50874;24.150;-110.320;2024-03-07T08:35:12;17.90;99.90
64501;DHT22;50874;24.150;-110.320;2024-03-07T08:37:40;17.90;99.90
64501;DHT22;50874;24.150;-110.320;2024-03-07T08:40:08;17.90;99.90
64501;DHT22;50874;24.150;-110.320;2024-03-07T08:42:37;17.90;99.90
64501;DHT22;50874;24.150;-110.320;2024-03-07T08:45:04;17.90;99.90
64501;DHT22;50874;24.150;-110.320;2024-03-07T08:47:34;17.90;99.90
64501;DHT22;50874;24.150;-110.320;2024-03-07T08:50:05;17.90;99.90
64501;DHT22;50874;24.150;-110.320;2024-03-07T08:52:35;17.90;99.90
64501;DHT22;50874;24.150;-110.320;2024-03-07T08:55:07;17.90;99.90
64501;DHT22;50874;24.150;-110.320;2024-03-07T08:57:37;17.90;99.90
64501;DHT22;50874;24.150;-110.320;2024-03-07T09:00:08;17.90;99.90
64501;DHT22;50874;24.150;-110.320;2024-03-07T09:02:39;17.80;99.90
64501;DHT22;50874;24.150;-110.320;2024-03-07T09:05:06;17.80;99.90
64501;DHT22;50874;24.150;-110.320;2024-03-07T09:07:33;17.70;99.90
64501;DHT22;50874;24.150;-110.320;2024-03-07T09:09:59;17.70;99.90
64501;DHT22;50874;24.150;-110.320;2024-03-07T09:12:26;17.70;99.90
64501;DHT22;50874;24.150;-110.320;2024-03-07T09:14:54;17.70;99.90
64501;DHT22;50874;24.150;-110.320;2024-03-07T09:17:22;17.60;99.90
64501;DHT22;50874;24.150;-110.320;2024-03-07T09:19:48;17.60;99.90
64501;DHT22;50874;24.150;-110.320;2024-03-07T09:22:15;17.60;99.90
64501;DHT22;50874;24.150;-110.320;2024-03-07T09:24:41;17.60;99.90
64501;DHT22;50874;24.150;-110.320;2024-03-07T09:27:08;17.60;99.90
64501;DHT22;50874;24.150;-110.320;2024-03-07T09:29:34;17.60;99.90
64501;DHT22;50874;24.150;-110.320;2024-03-07T09:32:01;17.60;99.90
64501;DHT22;50874;24.150;-110.320;2024-03-07T09:34:28;17.60;99.90
64501;DHT22;50874;24.150;-110.320;2024-03-07T09:36:56;17.60;99.90
64501;DHT22;50874;24.150;-110.320;2024-03-07T09:39:25;17.60;99.90
64501;DHT22;50874;24.150;-110.320;2024-03-07T09:41:53;17.60;99.90
64501;DHT22;50874;24.150;-110.320;2024-03-07T09:44:22;17.50;99.90
64501;DHT22;50874;24.150;-110.320;2024-03-07T09:46:52;17.50;99.90
64501;DHT22;50874;24.150;-110.320;2024-03-07T09:49:20;17.50;99.90
64501;DHT22;50874;24.150;-110.320;2024-03-07T09:51:51;17.50;99.90
64501;DHT22;50874;24.150;-110.320;2024-03-07T09:54:26;17.50;99.90
64501;DHT22;50874;24.150;-110.320;2024-03-07T09:56:53;17.50;99.90
64501;DHT22;50874;24.150;-110.320;2024-03-07T09:59:24;17.50;99.90
64501;DHT22;50874;24.150;-110.320;2024-03-07T10:01:57;17.50;99.90
64501;DHT22;50874;24.150;-110.320;2024-03-07T10:04:31;17.50;99.90
64501;DHT22;50874;24.150;-110.320;2024-03-07T10:07:00;17.50;99.90
64501;DHT22;50874;24.150;-110.320;2024-03-07T10:09:27;17.50;99.90
64501;DHT22;50874;24.150;-110.320;2024-03-07T10:12:00;17.50;99.90
64501;DHT22;50874;24.150;-110.320;2024-03-07T10:14:32;17.50;99.90
64501;DHT22;50874;24.150;-110.320;2024-03-07T10:16:59;17.60;99.90
64501;DHT22;50874;24.150;-110.320;2024-03-07T10:19:25;17.50;99.90
64501;DHT22;50874;24.150;-110.320;2024-03-07T10:21:54;17.50;99.90
64501;DHT22;50874;24.150;-110.320;2024-03-07T10:24:25;17.50;99.90
64501;DHT22;50874;24.150;-110.320;2024-03-07T10:26:53;17.50;99.90
64501;DHT22;50874;24.150;-110.320;2024-03-07T10:29:22;17.50;99.90
64501;DHT22;50874;24.150;-110.320;2024-03-07T10:31:49;17.50;99.90
64501;DHT22;50874;24.150;-110.320;2024-03-07T10:34:16;17.50;99.90
64501;DHT22;50874;24.150;-110.320;2024-03-07T10:36:43;17.50;99.90
64501;DHT22;50874;24.150;-110.320;2024-03-07T10:39:11;17.40;99.90
64501;DHT22;50874;24.150;-110.320;2024-03-07T10:41:47;17.40;99.90
64501;DHT22;50874;24.150;-110.320;2024-03-07T10:44:25;17.30;99.90
64501;DHT22;50874;24.150;-110.320;2024-03-07T10:46:53;17.30;99.90
64501;DHT22;50874;24.150;-110.320;2024-03-07T10:49:20;17.20;99.90
64501;DHT22;50874;24.150;-110.320;2024-03-07T10:52:17;17.10;99.90
64501;DHT22;50874;24.150;-110.320;2024-03-07T10:57:54;17.00;99.90
64501;DHT22;50874;24.150;-110.320;2024-03-07T11:00:26;16.90;99.90
64501;DHT22;50874;24.150;-110.320;2024-03-07T11:03:09;16.80;99.90
64501;DHT22;50874;24.150;-110.320;2024-03-07T11:05:37;16.70;99.90
64501;DHT22;50874;24.150;-110.320;2024-03-07T11:08:05;16.70;99.90
64501;DHT22;50874;24.150;-110.320;2024-03-07T11:10:37;16.70;99.90
64501;DHT22;50874;24.150;-110.320;2024-03-07T11:13:07;16.70;99.90
64501;DHT22;50874;24.150;-110.320;2024-03-07T11:15:36;16.70;99.90
64501;DHT22;50874;24.150;-110.320;2024-03-07T11:18:04;16.70;99.90
64501;DHT22;50874;24.150;-110.320;2024-03-07T11:20:37;16.60;99.90
64501;DHT22;50874;24.150;-110.320;2024-03-07T11:26:09;16.60;99.90
64501;DHT22;50874;24.150;-110.320;2024-03-07T11:28:41;16.60;99.90
64501;DHT22;50874;24.150;-110.320;2024-03-07T11:31:26;16.50;99.90
64501;DHT22;50874;24.150;-110.320;2024-03-07T11:34:15;16.50;99.90
64501;DHT22;50874;24.150;-110.320;2024-03-07T11:36:48;16.50;99.90
64501;DHT22;50874;24.150;-110.320;2024-03-07T11:39:46;16.50;99.90
64501;DHT22;50874;24.150;-110.320;2024-03-07T11:44:48;16.40;99.90
64501;DHT22;50874;24.150;-110.320;2024-03-07T11:47:15;16.40;99.90
64501;DHT22;50874;24.150;-110.320;2024-03-07T11:49:44;16.40;99.90
64501;DHT22;50874;24.150;-110.320;2024-03-07T11:52:15;16.30;99.90
64501;DHT22;50874;24.150;-110.320;2024-03-07T11:54:43;16.30;99.90
64501;DHT22;50874;24.150;-110.320;2024-03-07T11:57:15;16.20;99.90
64501;DHT22;50874;24.150;-110.320;2024-03-07T11:59:43;16.20;99.90
64501;DHT22;50874;24.150;-110.320;2024-03-07T12:02:15;16.20;99.90
64501;DHT22;50874;24.150;-110.320;2024-03-07T12:04:44;16.20;99.90
64501;DHT22;50874;24.150;-110.320;2024-03-07T12:07:10;16.20;99.90
64501;DHT22;50874;24.150;-110.320;2024-03-07T12:09:40;16.10;99.90
64501;DHT22;50874;24.150;-110.320;2024-03-07T12:12:11;16.10;99.90
64501;DHT22;50874;24.150;-110.320;2024-03-07T12:14:38;16.10;99.90
64501;DHT22;50874;24.150;-110.320;2024-03-07T12:17:05;16.10;99.90
64501;DHT22;50874;24.150;-110.320;2024-03-07T12:19:35;16.10;99.90
64501;DHT22;50874;24.150;-110.320;2024-03-07T12:22:07;16.10;99.90
64501;DHT22;50874;24.150;-110.320;2024-03-07T12:24:39;16.00;99.90
64501;DHT22;50874;24.150;-110.320;2024-03-07T12:27:11;16.00;99.90
64501;DHT22;50874;24.150;-110.320;2024-03-07T12:29:38;16.10;99.90
64501;DHT22;50874;24.150;-110.320;2024-03-07T12:32:06;16.10;99.90
64501;DHT22;50874;24.150;-110.320;2024-03-07T12:34:40;16.10;99.90
64501;DHT22;50874;24.150;-110.320;2024-03-07T12:37:12;16.10;99.90
64501;DHT22;50874;24.150;-110.320;2024-03-07T12:39:43;16.10;99.90
64501;DHT22;50874;24.150;-110.320;2024-03-07T12:42:16;16.00;99.90
64501;DHT22;50874;24.150;-110.320;2024-03-07T12:44:46;16.00;99.90
64501;DHT22;50874;24.150;-110.320;2024-03-07T12:47:13;16.00;99.90
64501;DHT22;50874;24.150;-110.320;2024-03-07T12:49:43;15.90;99.90
64501;DHT22;50874;24.150;-110.320;2024-03-07T12:52:10;15.90;99.90
64501;DHT22;50874;24.150;-110.320;2024-03-07T12:54:41;15.90;99.90
64501;DHT22;50874;24.150;-110.320;2024-03-07T12:57:11;15.80;99.90
64501;DHT22;50874;24.150;-110.320;2024-03-07T12:59:38;15.80;99.90
64501;DHT22;50874;24.150;-110.320;2024-03-07T13:02:08;15.80;99.90
64501;DHT22;50874;24.150;-110.320;2024-03-07T13:04:35;15.80;99.90
64501;DHT22;50874;24.150;-110.320;2024-03-07T13:07:05;15.80;99.90
64501;DHT22;50874;24.150;-110.320;2024-03-07T13:09:32;15.70;99.90
64501;DHT22;50874;24.150;-110.320;2024-03-07T13:11:59;15.80;99.90
64501;DHT22;50874;24.150;-110.320;2024-03-07T13:14:33;15.80;99.90
64501;DHT22;50874;24.150;-110.320;2024-03-07T13:17:03;15.80;99.90
64501;DHT22;50874;24.150;-110.320;2024-03-07T13:19:30;15.70;99.90
64501;DHT22;50874;24.150;-110.320;2024-03-07T13:21:57;15.70;99.90
64501;DHT22;50874;24.150;-110.320;2024-03-07T13:24:25;15.70;99.90
64501;DHT22;50874;24.150;-110.320;2024-03-07T13:26:52;15.70;99.90
64501;DHT22;50874;24.150;-110.320;2024-03-07T13:29:19;15.60;99.90
64501;DHT22;50874;24.150;-110.320;2024-03-07T13:31:51;15.50;99.90
64501;DHT22;50874;24.150;-110.320;2024-03-07T13:34:18;15.40;99.90
64501;DHT22;50874;24.150;-110.320;2024-03-07T13:36:45;15.30;99.90
64501;DHT22;50874;24.150;-110.320;2024-03-07T13:39:12;15.30;99.90
64501;DHT22;50874;24.150;-110.320;2024-03-07T13:41:43;15.20;99.90
64501;DHT22;50874;24.150;-110.320;2024-03-07T13:44:10;15.20;99.90
64501;DHT22;50874;24.150;-110.320;2024-03-07T13:46:37;15.10;99.90
64501;DHT22;50874;24.150;-110.320;2024-03-07T13:49:04;15.10;99.90
64501;DHT22;50874;24.150;-110.320;2024-03-07T13:51:42;15.10;99.90
64501;DHT22;50874;24.150;-110.320;2024-03-07T13:54:29;15.10;99.90
64501;DHT22;50874;24.150;-110.320;2024-03-07T14:00:05;15.10;99.90
64501;DHT22;50874;24.150;-110.320;2024-03-07T14:06:03;15.10;99.90
64501;DHT22;50874;24.150;-110.320;2024-03-07T14:14:23;15.20;99.90
64501;DHT22;50874;24.150;-110.320;2024-03-07T14:17:20;15.30;99.90
64501;DHT22;50874;24.150;-110.320;2024-03-07T14:29:00;15.50;99.90
64501;DHT22;50874;24.150;-110.320;2024-03-07T14:31:30;15.70;99.90
64501;DHT22;50874;24.150;-110.320;2024-03-07T14:36:56;15.80;99.90
64501;DHT22;50874;24.150;-110.320;2024-03-07T14:39:25;16.00;99.90
64501;DHT22;50874;24.150;-110.320;2024-03-07T14:42:05;16.00;99.90
64501;DHT22;50874;24.150;-110.320;2024-03-07T14:44:38;16.10;99.90
64501;DHT22;50874;24.150;-110.320;2024-03-07T14:47:08;16.20;99.90
64501;DHT22;50874;24.150;-110.320;2024-03-07T14:49:41;16.30;99.90
64501;DHT22;50874;24.150;-110.320;2024-03-07T14:52:08;16.50;99.90
64501;DHT22;50874;24.150;-110.320;2024-03-07T14:54:40;16.60;99.90
64501;DHT22;50874;24.150;-110.320;2024-03-07T14:57:08;16.70;99.90
64501;DHT22;50874;24.150;-110.320;2024-03-07T14:59:37;16.80;99.90
64501;DHT22;50874;24.150;-110.320;2024-03-07T15:02:06;16.90;99.90
64501;DHT22;50874;24.150;-110.320;2024-03-07T15:04:37;17.00;99.90
64501;DHT22;50874;24.150;-110.320;2024-03-07T15:07:05;17.10;99.90
64501;DHT22;50874;24.150;-110.320;2024-03-07T15:09:32;17.30;99.90
64501;DHT22;50874;24.150;-110.320;2024-03-07T15:12:00;17.30;99.90
64501;DHT22;50874;24.150;-110.320;2024-03-07T15:14:26;17.40;99.90
64501;DHT22;50874;24.150;-110.320;2024-03-07T15:16:52;17.50;99.90
64501;DHT22;50874;24.150;-110.320;2024-03-07T15:19:19;17.50;99.90
64501;DHT22;50874;24.150;-110.320;2024-03-07T15:21:46;17.60;99.90
64501;DHT22;50874;24.150;-110.320;2024-03-07T15:24:14;17.70;99.90
64501;DHT22;50874;24.150;-110.320;2024-03-07T15:26:40;18.00;99.90
64501;DHT22;50874;24.150;-110.320;2024-03-07T15:29:09;18.30;99.90
64501;DHT22;50874;24.150;-110.320;2024-03-07T15:31:38;18.80;99.90
64501;DHT22;50874;24.150;-110.320;2024-03-07T15:34:06;19.10;99.90
64501;DHT22;50874;24.150;-110.320;2024-03-07T15:36:32;19.40;99.90
64501;DHT22;50874;24.150;-110.320;2024-03-07T15:38:59;19.60;99.90